Airfield :
LOGIN :

Register | Disclaimer

   EN    FR    IT 

 










Legend :    VFR   Marginal VFR   IFR   Intensive IFR   Very Intensive IFR
Visi :
Ceiling :
>= 8 km
>= 3000ft
5 to 8 km
1000 to 3000 ft
1500m to 5 km
500 to 1000 ft
800 to 1500m
200 to 500 ft
< 800m
< 200 ft
Symbols :   Thunderstorms  Fog  Heavy snow  Heavy precipitations  Wind > 20 kt
SIGMETs :     Misc.  Thunderstorms  Icing  Turbulence  Mountain Waves  Volcanic Ashes






- Airport Elevation : 162 ft
- IATA code : BOD


LFBD - Bordeaux / Merignac

CURRENT METAR :
  • 060300Z AUTO 13007KT 9999 -RA ///TCU 11/08 Q1016 TEMPO 4000 RA BKN006

EXPIRED METARs :
  • 060230Z AUTO 14006KT 9999 4900 -RA ///TCU 12/07 Q1017 TEMPO 4000 RA BKN006
  • 060200Z AUTO 15006KT 9999 RA NSC 13/05 Q1016 BECMG NSW
  • 060130Z AUTO 14006KT CAVOK 14/02 Q1016 NOSIG
  • 060100Z AUTO 15007KT CAVOK 14/02 Q1016 NOSIG
  • 060030Z AUTO 15007KT CAVOK 15/02 Q1016 NOSIG
  • 060000Z AUTO 14006KT CAVOK 15/02 Q1016 NOSIG

TAF TAF LFBD
Valid from the 06 at 00:00 until the 07 at 06:00 UTC


052300Z 0600/0706 14010KT CAVOK TX15/0615Z TN10/0700Z
BECMG 0601/0603 -RA BKN030
TEMPO 0604/0612 4000 RA SCT008 BKN013
PROB40 0604/0612 BKN006
BECMG 0613/0615 VRB02KT
BECMG 0620/0622 08006KT NSW
BECMG 0700/0702 CAVOK
ATIS : +33 5 57 92 81 04



MET'MAP, your aeronautical weather chart ! - Copyright ORBIFLY December 2007 - Disclaimer

ORBIFLY MET'MAP TEAM :

Programming & Development : Alexandra Zaïnal
Concept & original design : Baudouin d'Aumeries
Assistance for programming : Marc-Olivier Méhu
Technical & hardware support : Manuel Goepfert

Contact : metmap@orbifly.com




SOURCES & CREDITS :

   NOAA